Time;durP1;ratioP1;P1;durP2;ratioP2;P2;SDS_P1;SDS_P2;PMS_P1;PMS_P2;Temp;Humidity;BMP_temperature;BMP_pressure;BME280_temperature;BME280_humidity;BME280_pressure;Samples;Min_cycle;Max_cycle;Signal;HPM_P1;HPM_P2
2023/04/23 00:01:54;;;;;;;1.97;1.87;;;;;;;21.04;54.38;96837.31;4935841;28;20247;-26
2023/04/23 00:04:20;;;;;;;1.73;1.63;;;;;;;21.09;54.39;96851.94;4919856;29;20224;-27
2023/04/23 00:06:47;;;;;;;2.20;2.00;;;;;;;21.09;54.48;96851.06;4923369;29;20216;-33
2023/04/23 00:09:15;;;;;;;2.17;1.67;;;;;;;21.10;54.45;96848.53;4916370;29;20300;-26
2023/04/23 00:11:42;;;;;;;3.50;1.93;;;;;;;21.09;54.43;96840.84;4917342;29;20256;-26
2023/04/23 00:14:09;;;;;;;3.33;1.80;;;;;;;21.08;54.37;96836.56;4916888;29;20205;-26
2023/04/23 00:16:35;;;;;;;2.30;2.10;;;;;;;21.09;54.44;96835.72;4921803;29;20237;-27
2023/04/23 00:19:02;;;;;;;2.90;2.00;;;;;;;21.07;53.92;96830.59;4927317;29;20209;-26
2023/04/23 00:21:29;;;;;;;2.23;2.00;;;;;;;21.07;54.53;96856.13;4918295;29;20267;-37
2023/04/23 00:23:55;;;;;;;2.17;1.90;;;;;;;21.07;54.55;96832.28;4931769;29;20575;-30
2023/04/23 00:26:22;;;;;;;2.30;2.00;;;;;;;21.06;54.49;96833.13;4928248;29;20257;-26
2023/04/23 00:28:48;;;;;;;2.10;1.90;;;;;;;21.05;54.60;96824.56;4936810;29;20303;-26
2023/04/23 00:31:15;;;;;;;2.10;1.80;;;;;;;21.04;54.60;96830.53;4923540;29;20327;-26
2023/04/23 00:33:41;;;;;;;2.20;2.00;;;;;;;21.04;54.35;96822.88;4922014;29;20265;-26
2023/04/23 00:36:08;;;;;;;2.97;2.10;;;;;;;21.04;54.43;96824.53;4943458;29;20209;-29
2023/04/23 00:38:35;;;;;;;3.73;1.87;;;;;;;21.03;54.88;96825.38;4937188;29;20287;-26
2023/04/23 00:41:01;;;;;;;2.33;1.90;;;;;;;21.02;54.39;96829.63;4931076;29;20340;-26
2023/04/23 00:43:28;;;;;;;2.27;2.00;;;;;;;21.02;54.46;96839.84;4936578;29;20280;-26
2023/04/23 00:45:54;;;;;;;3.13;2.10;;;;;;;21.01;54.46;96832.16;4936308;29;20628;-25
2023/04/23 00:48:21;;;;;;;2.20;2.00;;;;;;;21.02;54.62;96833.88;4913512;29;20240;-26
2023/04/23 00:50:47;;;;;;;2.10;1.90;;;;;;;21.01;54.66;96830.47;4924227;29;20304;-26
2023/04/23 00:53:14;;;;;;;3.10;1.93;;;;;;;21.00;54.33;96827.88;4933228;29;20205;-26
2023/04/23 00:55:41;;;;;;;2.73;2.10;;;;;;;21.01;54.62;96835.56;4931712;29;20680;-34
2023/04/23 00:58:07;;;;;;;2.10;1.90;;;;;;;21.00;54.55;96838.09;4910015;29;20216;-26
2023/04/23 01:00:35;;;;;;;2.43;1.83;;;;;;;20.89;54.58;96812.31;4932376;29;20314;-26
2023/04/23 01:03:02;;;;;;;2.97;2.10;;;;;;;20.96;54.73;96831.22;4917804;29;20206;-26
2023/04/23 01:05:29;;;;;;;1.97;1.77;;;;;;;20.95;54.35;96820.13;4915807;29;20316;-35
2023/04/23 01:07:56;;;;;;;2.73;2.10;;;;;;;21.01;54.49;96835.56;4917075;29;20204;-26
2023/04/23 01:10:23;;;;;;;2.30;2.10;;;;;;;21.01;54.56;96833.03;4923895;29;20225;-25
2023/04/23 01:12:49;;;;;;;1.70;1.60;;;;;;;21.01;54.18;96829.59;4915845;29;20583;-33
2023/04/23 01:15:16;;;;;;;2.20;1.80;;;;;;;21.01;54.03;96830.47;4923409;29;20288;-28
2023/04/23 01:17:42;;;;;;;2.10;1.90;;;;;;;20.93;54.61;96810.69;4930241;29;20586;-26
2023/04/23 01:20:09;;;;;;;2.10;1.90;;;;;;;21.02;54.42;96833.88;4936115;28;20231;-26
2023/04/23 01:22:36;;;;;;;2.57;2.10;;;;;;;21.03;54.44;96830.50;4931234;29;20209;-30
2023/04/23 01:25:03;;;;;;;1.83;1.73;;;;;;;21.04;54.49;96834.75;4928503;29;20221;-26
2023/04/23 01:27:30;;;;;;;2.20;2.00;;;;;;;21.04;54.46;96837.31;4916198;29;20207;-27
2023/04/23 01:29:57;;;;;;;3.23;1.90;;;;;;;21.04;54.32;96833.09;4912384;29;20701;-26
2023/04/23 01:32:24;;;;;;;2.30;2.10;;;;;;;21.04;54.33;96838.19;4929263;29;20682;-26
2023/04/23 01:34:50;;;;;;;2.30;2.03;;;;;;;19.49;54.46;96566.03;4905641;29;20197;-28
2023/04/23 01:37:17;;;;;;;1.93;1.70;;;;;;;21.05;54.60;96837.34;4901508;29;20212;-30
2023/04/23 01:39:43;;;;;;;2.50;2.00;;;;;;;21.05;54.46;96833.97;4923386;29;20212;-26
2023/04/23 01:42:10;;;;;;;2.23;2.03;;;;;;;20.93;54.35;96813.25;4932772;29;20696;-26
2023/04/23 01:44:36;;;;;;;2.13;1.93;;;;;;;20.91;54.71;96804.66;4922077;29;20257;-26
2023/04/23 01:47:03;;;;;;;1.87;1.73;;;;;;;21.06;54.39;96840.78;4909589;29;20206;-26
2023/04/23 01:49:32;;;;;;;2.13;1.93;;;;;;;21.02;54.36;96836.44;4918924;29;20205;-33
2023/04/23 01:51:59;;;;;;;2.53;2.07;;;;;;;21.05;54.18;96846.72;4909716;29;20233;-26
2023/04/23 01:54:25;;;;;;;3.00;2.20;;;;;;;20.95;54.37;96844.78;4928198;29;20201;-26
2023/04/23 01:56:53;;;;;;;2.00;1.80;;;;;;;21.04;54.35;96843.31;4932749;29;20291;-28
2023/04/23 01:59:21;;;;;;;2.40;2.20;;;;;;;21.04;54.41;96845.84;4914272;29;20212;-26
2023/04/23 02:01:48;;;;;;;1.80;1.70;;;;;;;21.04;54.45;96840.75;4908735;29;20228;-26
2023/04/23 02:04:15;;;;;;;2.10;1.90;;;;;;;21.04;54.37;96848.41;4911218;29;20229;-26
2023/04/23 02:06:44;;;;;;;2.67;2.20;;;;;;;21.03;54.54;96849.25;4931005;29;20236;-26
2023/04/23 02:09:11;;;;;;;1.80;1.70;;;;;;;21.02;54.21;96847.50;4930629;29;20288;-29
2023/04/23 02:11:37;;;;;;;2.00;1.60;;;;;;;21.02;54.50;96846.66;4924428;29;20221;-26
2023/04/23 02:14:04;;;;;;;2.10;1.90;;;;;;;21.01;54.29;96848.34;4938092;29;20205;-26
2023/04/23 02:16:31;;;;;;;2.17;1.90;;;;;;;21.01;54.13;96853.47;4935386;29;20208;-26
2023/04/23 02:18:58;;;;;;;2.13;1.77;;;;;;;21.01;54.60;96852.59;4934086;29;20215;-34
2023/04/23 02:21:26;;;;;;;2.10;1.90;;;;;;;21.00;54.54;96854.28;4931021;29;20292;-31
2023/04/23 02:23:52;;;;;;;2.10;1.90;;;;;;;21.00;54.45;96851.75;4929830;29;20723;-26
2023/04/23 02:26:19;;;;;;;3.33;2.00;;;;;;;20.99;54.30;96852.56;4920482;29;20219;-26
2023/04/23 02:28:45;;;;;;;2.23;2.03;;;;;;;21.00;54.72;96855.97;4925188;29;20676;-26
2023/04/23 02:31:12;;;;;;;1.90;1.80;;;;;;;21.00;54.30;96858.53;4936454;28;20659;-26
2023/04/23 02:33:41;;;;;;;1.83;1.73;;;;;;;20.99;54.36;96859.38;4931255;29;20204;-26
2023/04/23 02:36:09;;;;;;;2.03;1.87;;;;;;;20.99;54.34;96855.09;4933672;29;20271;-26
2023/04/23 02:38:36;;;;;;;2.00;1.77;;;;;;;21.01;54.50;96850.91;4936191;29;20330;-29
2023/04/23 02:41:02;;;;;;;1.80;1.70;;;;;;;20.99;54.40;96854.25;4923267;29;20776;-26
2023/04/23 02:43:29;;;;;;;1.80;1.70;;;;;;;20.99;54.26;96850.00;4928840;29;20281;-25
2023/04/23 02:45:55;;;;;;;2.30;1.87;;;;;;;21.01;54.56;96857.69;4926683;29;20227;-26
2023/04/23 02:48:22;;;;;;;2.57;1.90;;;;;;;21.01;54.35;96870.47;4930574;29;20205;-32
2023/04/23 02:50:49;;;;;;;2.20;2.00;;;;;;;21.00;54.59;96859.41;4936495;29;20703;-26
2023/04/23 02:53:15;;;;;;;1.87;1.77;;;;;;;21.01;54.29;96853.47;4928860;29;20209;-26
2023/04/23 02:55:42;;;;;;;2.20;2.00;;;;;;;21.01;54.64;96847.47;4924388;29;20209;-26
2023/04/23 02:58:09;;;;;;;2.20;1.83;;;;;;;21.02;54.23;96852.63;4935845;29;20209;-29
2023/04/23 03:00:35;;;;;;;2.00;1.80;;;;;;;21.01;54.59;96853.47;4933949;29;20259;-26
2023/04/23 03:03:02;;;;;;;1.70;1.60;;;;;;;21.02;54.62;96860.28;4935085;29;20288;-26
2023/04/23 03:05:29;;;;;;;2.03;1.80;;;;;;;21.03;54.23;96858.59;4929360;29;20229;-32
2023/04/23 03:07:55;;;;;;;1.73;1.63;;;;;;;21.04;54.51;96860.31;4930939;29;20207;-28
2023/04/23 03:10:22;;;;;;;2.00;1.80;;;;;;;21.04;54.40;96853.53;4932883;29;20251;-26
2023/04/23 03:12:48;;;;;;;1.80;1.70;;;;;;;21.04;54.26;96856.06;4925710;29;20205;-27
2023/04/23 03:15:16;;;;;;;1.60;1.50;;;;;;;21.05;53.73;96859.50;4921593;29;20285;-26
2023/04/23 03:17:43;;;;;;;1.80;1.70;;;;;;;21.05;54.46;96860.34;4931517;29;20409;-26
2023/04/23 03:20:10;;;;;;;1.83;1.67;;;;;;;21.05;54.09;96856.94;4930963;29;20201;-30
2023/04/23 03:22:37;;;;;;;1.70;1.60;;;;;;;21.05;54.46;96855.22;4923137;29;20213;-26
2023/04/23 03:25:04;;;;;;;1.87;1.60;;;;;;;21.05;54.51;96859.50;4934348;29;20234;-32
2023/04/23 03:27:30;;;;;;;1.70;1.60;;;;;;;21.05;54.30;96862.06;4932104;29;20461;-26
2023/04/23 03:29:57;;;;;;;2.53;1.80;;;;;;;21.04;54.31;96863.75;4929287;29;20263;-26
2023/04/23 03:32:23;;;;;;;1.80;1.70;;;;;;;21.04;54.17;96863.75;4930761;29;20284;-26
2023/04/23 03:34:50;;;;;;;2.00;1.90;;;;;;;21.04;54.49;96873.09;4924758;29;20196;-34
2023/04/23 03:37:17;;;;;;;1.83;1.73;;;;;;;21.04;54.43;96873.97;4928686;29;20296;-26
2023/04/23 03:39:43;;;;;;;1.80;1.70;;;;;;;21.03;54.26;96866.25;4937990;29;20206;-26
2023/04/23 03:42:10;;;;;;;1.80;1.70;;;;;;;21.03;54.15;96871.38;4930775;29;20228;-26
2023/04/23 03:44:36;;;;;;;1.80;1.70;;;;;;;21.02;54.08;96873.06;4935792;29;20311;-26
2023/04/23 03:47:03;;;;;;;2.50;1.83;;;;;;;21.02;54.34;96862.00;4924152;29;20269;-31
2023/04/23 03:49:30;;;;;;;2.10;1.90;;;;;;;21.02;54.24;96869.66;4925900;29;20208;-26
2023/04/23 03:51:57;;;;;;;2.60;1.90;;;;;;;21.01;54.25;96884.13;4929607;29;20225;-26
2023/04/23 03:54:24;;;;;;;1.93;1.83;;;;;;;21.01;54.40;96873.00;4939751;29;20746;-29
2023/04/23 03:56:51;;;;;;;1.87;1.77;;;;;;;21.00;54.38;96882.41;4921862;29;20214;-26
2023/04/23 03:59:18;;;;;;;1.70;1.60;;;;;;;21.00;54.02;96878.97;4936001;29;20204;-27
2023/04/23 04:01:47;;;;;;;1.83;1.70;;;;;;;20.99;54.25;96883.19;4925243;29;20233;-29
2023/04/23 04:04:14;;;;;;;1.80;1.70;;;;;;;20.99;54.44;96890.03;4931459;29;20213;-27
2023/04/23 04:06:41;;;;;;;2.07;1.77;;;;;;;20.98;54.28;96886.59;4936539;29;20255;-27
2023/04/23 04:09:08;;;;;;;1.70;1.60;;;;;;;20.99;54.50;96885.75;4936465;29;20707;-29
2023/04/23 04:11:35;;;;;;;2.00;1.80;;;;;;;20.99;54.18;96892.59;4933091;29;20749;-27
2023/04/23 04:14:01;;;;;;;2.03;1.83;;;;;;;20.99;54.48;96895.97;4935827;29;20284;-26
2023/04/23 04:16:28;;;;;;;1.90;1.80;;;;;;;20.99;54.54;96892.59;4943140;29;20638;-36
2023/04/23 04:18:55;;;;;;;1.70;1.60;;;;;;;20.99;54.04;96895.97;4929603;29;20209;-32
2023/04/23 04:21:22;;;;;;;1.80;1.70;;;;;;;20.99;54.36;96892.59;4937356;29;20235;-26
2023/04/23 04:23:48;;;;;;;1.60;1.50;;;;;;;21.00;54.27;96896.84;4937002;29;20521;-31
2023/04/23 04:26:15;;;;;;;1.80;1.60;;;;;;;21.00;54.42;96894.28;4929919;29;20229;-27
2023/04/23 04:28:41;;;;;;;3.00;1.83;;;;;;;21.00;54.38;96895.16;4924610;29;20214;-26
2023/04/23 04:31:09;;;;;;;1.70;1.60;;;;;;;21.02;54.08;96902.88;4931915;29;20611;-28
2023/04/23 04:33:38;;;;;;;2.70;2.00;;;;;;;21.01;54.36;96907.09;4930958;29;20213;-26
2023/04/23 04:36:07;;;;;;;1.80;1.70;;;;;;;21.01;54.38;96912.22;4930972;29;20202;-28
2023/04/23 04:38:36;;;;;;;1.87;1.70;;;;;;;21.02;54.49;96916.47;4936825;29;20201;-26
2023/04/23 04:41:03;;;;;;;2.03;1.73;;;;;;;21.03;54.34;96925.88;4930698;29;20228;-26
2023/04/23 04:43:31;;;;;;;1.63;1.53;;;;;;;21.03;54.32;96918.22;4934659;29;20205;-26
2023/04/23 04:45:58;;;;;;;1.93;1.80;;;;;;;21.02;53.82;96921.59;4931488;29;20589;-30
2023/04/23 04:48:24;;;;;;;1.70;1.60;;;;;;;21.03;54.40;96927.56;4932859;29;20221;-26
2023/04/23 04:50:51;;;;;;;1.80;1.70;;;;;;;20.99;54.21;96918.13;4929801;29;20224;-26
2023/04/23 04:53:18;;;;;;;1.80;1.70;;;;;;;21.03;54.36;96925.00;4922299;29;20206;-30
2023/04/23 04:55:44;;;;;;;1.50;1.40;;;;;;;21.05;54.16;96931.03;4935109;29;20248;-39
2023/04/23 04:58:11;;;;;;;1.70;1.60;;;;;;;21.05;54.34;96931.88;4927151;29;20688;-26
2023/04/23 05:00:37;;;;;;;1.77;1.67;;;;;;;21.05;54.47;96938.69;4928804;29;20232;-26
2023/04/23 05:03:04;;;;;;;2.03;1.60;;;;;;;20.90;54.04;96910.22;4925444;29;20205;-26
2023/04/23 05:05:31;;;;;;;1.80;1.50;;;;;;;21.05;54.30;96939.53;4918477;29;20258;-26
2023/04/23 05:08:00;;;;;;;1.70;1.60;;;;;;;21.05;54.49;96942.09;4927856;29;20240;-26
2023/04/23 05:10:28;;;;;;;3.10;1.87;;;;;;;21.05;53.99;96939.53;4927193;29;20221;-26
2023/04/23 05:12:57;;;;;;;2.03;1.87;;;;;;;21.04;54.17;96945.50;4935986;29;20656;-26
2023/04/23 05:15:23;;;;;;;1.70;1.60;;;;;;;21.03;54.48;96948.88;4930160;29;20202;-26
2023/04/23 05:17:52;;;;;;;1.80;1.70;;;;;;;21.04;54.14;96959.94;4928588;29;20201;-26
2023/04/23 05:20:19;;;;;;;1.70;1.60;;;;;;;21.03;53.88;96965.88;4933145;29;20221;-25
2023/04/23 05:22:46;;;;;;;1.50;1.40;;;;;;;20.98;54.15;96952.13;4967729;23;20224;-32
2023/04/23 05:25:13;;;;;;;1.87;1.77;;;;;;;21.00;54.03;96964.16;4958531;28;20228;-30
2023/04/23 05:27:39;;;;;;;1.83;1.73;;;;;;;21.01;54.13;96964.97;4947004;29;20647;-29
2023/04/23 05:30:08;;;;;;;1.70;1.60;;;;;;;21.00;53.86;96963.28;4955625;28;20938;-36
2023/04/23 05:32:35;;;;;;;1.90;1.80;;;;;;;20.98;53.80;96973.44;4936737;28;20310;-30
2023/04/23 05:35:02;;;;;;;1.80;1.70;;;;;;;20.92;53.95;96965.63;4940996;29;20259;-29
2023/04/23 05:37:29;;;;;;;1.70;1.53;;;;;;;20.97;53.87;96975.97;4938456;29;20228;-28
2023/04/23 05:39:57;;;;;;;2.33;1.63;;;;;;;20.96;53.98;96971.69;4935191;29;20212;-26
2023/04/23 05:42:23;;;;;;;1.90;1.80;;;;;;;20.96;53.70;96981.91;4935309;29;20335;-27
2023/04/23 05:44:50;;;;;;;1.97;1.67;;;;;;;20.95;53.88;96975.94;4935171;28;20204;-27
2023/04/23 05:47:16;;;;;;;1.50;1.40;;;;;;;20.95;53.88;96986.16;4933844;29;20213;-27
2023/04/23 05:49:43;;;;;;;1.70;1.50;;;;;;;20.92;53.86;96977.50;4935822;29;20205;-27
2023/04/23 05:52:10;;;;;;;1.80;1.70;;;;;;;20.94;53.71;96976.75;4940456;28;20317;-27
2023/04/23 05:54:37;;;;;;;1.73;1.63;;;;;;;20.91;53.85;96974.13;4934103;29;20209;-27
2023/04/23 05:57:04;;;;;;;6.10;1.77;;;;;;;20.94;53.60;96978.41;4936286;29;20626;-27
2023/04/23 05:59:32;;;;;;;1.60;1.50;;;;;;;20.94;53.63;96980.97;4932036;29;20296;-28
2023/04/23 06:01:59;;;;;;;1.63;1.53;;;;;;;20.93;53.51;96982.66;4934300;29;20260;-27
2023/04/23 06:04:25;;;;;;;1.90;1.80;;;;;;;20.94;53.66;96984.41;4918921;29;20496;-28
2023/04/23 06:06:53;;;;;;;2.40;1.70;;;;;;;20.93;53.54;96982.66;4932894;29;20224;-29
2023/04/23 06:09:19;;;;;;;2.53;1.60;;;;;;;20.93;53.88;96997.13;4930322;29;20234;-26
2023/04/23 06:11:46;;;;;;;1.73;1.63;;;;;;;20.92;53.23;96987.72;4934560;29;20628;-28
2023/04/23 06:14:12;;;;;;;1.60;1.50;;;;;;;20.92;53.41;96991.16;4928034;29;20200;-30
2023/04/23 06:16:39;;;;;;;1.83;1.73;;;;;;;20.89;53.71;96983.44;4935538;29;20203;-27
2023/04/23 06:19:05;;;;;;;2.73;1.83;;;;;;;20.91;53.65;96988.56;4927634;29;20205;-27
2023/04/23 06:21:32;;;;;;;2.57;1.50;;;;;;;20.88;53.29;96988.50;4923403;29;21267;-28
2023/04/23 06:23:59;;;;;;;1.97;1.63;;;;;;;20.90;53.33;96987.69;4924821;29;20245;-28
2023/04/23 06:26:25;;;;;;;2.27;1.80;;;;;;;20.90;53.58;97007.28;4923566;29;20224;-29
2023/04/23 06:28:52;;;;;;;1.50;1.40;;;;;;;20.88;53.71;96983.38;4926086;29;20220;-30
2023/04/23 06:31:18;;;;;;;1.60;1.50;;;;;;;20.85;53.01;96978.22;4926634;28;20608;-28
2023/04/23 06:33:45;;;;;;;2.50;1.60;;;;;;;20.88;53.62;96985.94;4923371;29;20204;-28
2023/04/23 06:36:13;;;;;;;1.93;1.77;;;;;;;20.88;53.30;96985.94;4925014;29;20597;-27
2023/04/23 06:38:40;;;;;;;1.70;1.60;;;;;;;20.83;53.56;96969.63;4924566;29;20621;-27
2023/04/23 06:41:06;;;;;;;1.60;1.50;;;;;;;20.87;53.59;96984.22;4923651;29;20300;-27
2023/04/23 06:43:33;;;;;;;1.73;1.63;;;;;;;20.85;53.57;96981.63;4925021;28;20228;-29
2023/04/23 06:46:00;;;;;;;1.67;1.57;;;;;;;20.85;53.50;96981.63;4923424;29;20313;-28
2023/04/23 06:48:26;;;;;;;1.70;1.60;;;;;;;20.84;53.72;96992.66;4922256;29;20216;-28
2023/04/23 06:50:53;;;;;;;2.67;1.60;;;;;;;20.82;53.65;96981.56;4935229;29;20410;-28
2023/04/23 06:53:20;;;;;;;1.70;1.60;;;;;;;20.84;53.51;96984.16;4930953;29;20280;-27
2023/04/23 06:55:49;;;;;;;2.10;1.90;;;;;;;20.83;53.71;96983.28;4933103;29;20208;-27
2023/04/23 06:58:18;;;;;;;1.80;1.70;;;;;;;20.79;53.73;96962.75;4934251;28;20201;-27
2023/04/23 07:00:45;;;;;;;4.37;1.47;;;;;;;20.51;53.75;96922.94;4934599;29;20208;-27
2023/04/23 07:03:11;;;;;;;4.87;1.90;;;;;;;20.82;53.81;96979.00;4934814;29;20270;-28
2023/04/23 07:05:38;;;;;;;2.23;1.70;;;;;;;20.81;53.61;96977.25;4934592;29;20235;-28
2023/04/23 07:08:04;;;;;;;1.70;1.60;;;;;;;20.78;53.85;96972.09;4941334;29;20295;-28
2023/04/23 07:10:31;;;;;;;3.83;2.13;;;;;;;20.80;53.94;96978.09;4937409;29;20288;-27
2023/04/23 07:12:57;;;;;;;1.40;1.30;;;;;;;20.80;53.75;96978.09;4931459;29;20263;-27
2023/04/23 07:15:24;;;;;;;5.00;1.50;;;;;;;20.80;53.87;96982.34;4934379;29;20236;-26
2023/04/23 07:17:51;;;;;;;6.23;1.93;;;;;;;20.79;53.93;96983.19;4927377;29;20707;-28
2023/04/23 07:20:17;;;;;;;4.17;2.00;;;;;;;20.79;54.11;96976.38;4925844;29;20208;-27
2023/04/23 07:22:45;;;;;;;5.80;2.13;;;;;;;20.76;53.90;96965.22;4930402;29;20328;-26
2023/04/23 07:25:12;;;;;;;6.90;2.00;;;;;;;20.75;54.15;96966.91;4931428;29;20239;-27
2023/04/23 07:27:39;;;;;;;4.07;1.80;;;;;;;20.80;53.86;96972.13;4926420;29;20205;-29
2023/04/23 07:30:06;;;;;;;3.73;2.43;;;;;;;20.81;54.07;96967.06;4928798;29;20726;-30
2023/04/23 07:32:33;;;;;;;5.63;2.73;;;;;;;20.80;53.66;96969.56;4943129;28;20280;-27
2023/04/23 07:34:59;;;;;;;2.43;2.10;;;;;;;20.81;54.77;96967.06;4930006;29;20201;-30
2023/04/23 07:37:26;;;;;;;6.00;2.20;;;;;;;20.82;53.84;96966.25;4929062;29;20276;-28
2023/04/23 07:39:52;;;;;;;5.70;2.53;;;;;;;20.83;54.27;96962.84;4927844;29;20572;-29
2023/04/23 07:42:19;;;;;;;8.80;2.10;;;;;;;20.83;53.99;96960.31;4928136;29;20232;-29
2023/04/23 07:44:46;;;;;;;3.93;1.87;;;;;;;20.85;54.08;96962.88;4929197;29;20248;-31
2023/04/23 07:47:12;;;;;;;10.53;2.60;;;;;;;20.84;54.00;96962.00;4928581;29;20235;-30
2023/04/23 07:49:39;;;;;;;4.70;2.43;;;;;;;20.84;54.23;96959.47;4930581;29;20211;-30
2023/04/23 07:52:07;;;;;;;6.10;2.30;;;;;;;20.87;53.79;96959.53;4930674;29;20647;-31
2023/04/23 07:54:33;;;;;;;9.67;2.50;;;;;;;20.87;54.06;96959.53;4931659;29;20212;-27
2023/04/23 07:57:00;;;;;;;8.60;2.50;;;;;;;20.89;54.07;96959.56;4930962;29;20208;-27
2023/04/23 07:59:26;;;;;;;16.10;3.40;;;;;;;20.90;53.78;96966.41;4929623;29;20205;-33
2023/04/23 08:01:53;;;;;;;13.80;3.13;;;;;;;20.88;53.96;96965.50;4932212;29;20220;-28
2023/04/23 08:04:19;;;;;;;7.07;3.00;;;;;;;20.89;53.84;96955.31;4930524;28;20268;-27
2023/04/23 08:06:46;;;;;;;11.17;2.80;;;;;;;20.90;54.39;96956.19;4930847;28;20221;-29
2023/04/23 08:09:13;;;;;;;9.63;3.20;;;;;;;20.90;54.34;96959.59;4930830;29;20299;-28
2023/04/23 08:11:40;;;;;;;16.17;2.93;;;;;;;20.90;53.91;96956.19;4933631;29;20220;-28
2023/04/23 08:14:06;;;;;;;9.30;2.90;;;;;;;20.88;53.97;96957.84;4933760;29;20668;-27
2023/04/23 08:16:33;;;;;;;10.30;2.73;;;;;;;20.91;54.07;96958.78;4933789;29;20196;-27
2023/04/23 08:19:04;;;;;;;8.37;3.03;;;;;;;20.90;54.02;96951.94;4939302;29;20545;-28
2023/04/23 08:21:32;;;;;;;9.43;3.30;;;;;;;20.90;54.09;96944.28;4933359;29;20695;-28
2023/04/23 08:23:58;;;;;;;9.13;3.00;;;;;;;20.89;54.19;96949.34;4933631;29;20260;-27
2023/04/23 08:26:25;;;;;;;8.07;2.77;;;;;;;20.91;53.77;96947.69;4933025;29;20224;-27
2023/04/23 08:28:52;;;;;;;8.23;3.00;;;;;;;20.87;54.00;96939.09;4934315;29;20289;-27
2023/04/23 08:31:18;;;;;;;12.37;3.13;;;;;;;20.87;53.86;96935.69;4933177;29;20227;-29
2023/04/23 08:33:52;;;;;;;16.83;3.53;;;;;;;20.90;54.01;96941.72;4933513;29;20696;-29
2023/04/23 08:36:19;;;;;;;14.97;3.43;;;;;;;20.91;54.33;96937.47;4936059;29;20213;-28
2023/04/23 08:38:45;;;;;;;6.23;2.87;;;;;;;20.90;54.28;96940.88;4936668;29;20201;-26
2023/04/23 08:41:13;;;;;;;8.43;2.97;;;;;;;20.89;54.37;96942.56;4936920;29;20272;-26
2023/04/23 08:43:47;;;;;;;10.53;2.70;;;;;;;20.89;54.45;96944.25;4933788;29;20204;-27
2023/04/23 08:46:14;;;;;;;27.53;3.60;;;;;;;20.88;54.55;96940.84;4946665;28;20221;-27
2023/04/23 08:48:43;;;;;;;16.83;3.47;;;;;;;20.89;54.40;96949.34;4913962;29;20201;-28
2023/04/23 08:51:10;;;;;;;16.67;3.83;;;;;;;20.74;54.31;96920.91;4934049;29;20225;-26
2023/04/23 08:53:36;;;;;;;12.10;3.30;;;;;;;20.89;54.50;96941.69;4920194;29;20244;-26
2023/04/23 08:56:06;;;;;;;11.57;3.30;;;;;;;20.89;54.74;96949.34;4935820;28;20265;-26
2023/04/23 08:58:33;;;;;;;15.67;3.60;;;;;;;20.82;54.76;96950.91;4936518;29;20664;-28
2023/04/23 09:00:59;;;;;;;15.67;3.60;;;;;;;20.88;54.61;96945.06;4935409;29;20661;-27
2023/04/23 09:03:26;;;;;;;18.90;3.70;;;;;;;20.86;54.95;96944.16;4939865;28;20220;-27
2023/04/23 09:05:53;;;;;;;14.17;3.67;;;;;;;20.81;54.65;96928.75;4922459;29;20220;-26
2023/04/23 09:08:20;;;;;;;12.20;3.50;;;;;;;20.80;54.65;96933.81;4935357;29;20210;-26
2023/04/23 09:10:46;;;;;;;13.40;3.40;;;;;;;20.87;54.33;96940.81;4937922;29;20229;-29
2023/04/23 09:13:13;;;;;;;7.23;3.60;;;;;;;20.87;54.05;96944.22;4938736;29;20575;-27
2023/04/23 09:15:42;;;;;;;8.17;3.30;;;;;;;20.86;54.41;96926.28;4936695;29;20203;-28
2023/04/23 09:18:09;;;;;;;12.80;3.47;;;;;;;20.82;54.70;96921.97;4936463;29;20209;-27
2023/04/23 09:20:36;;;;;;;13.33;3.53;;;;;;;20.85;54.26;96925.44;4937360;29;20659;-27
2023/04/23 09:23:06;;;;;;;12.53;3.37;;;;;;;20.86;54.41;96921.19;4936229;29;20684;-26
2023/04/23 09:25:32;;;;;;;16.07;2.97;;;;;;;20.85;54.21;96932.25;4936228;29;20207;-26
2023/04/23 09:28:02;;;;;;;15.50;2.93;;;;;;;20.85;53.98;96915.22;4936190;29;20221;-27
2023/04/23 09:30:29;;;;;;;8.17;2.73;;;;;;;20.83;54.21;96908.34;4933440;29;20680;-27
2023/04/23 09:32:56;;;;;;;7.80;3.00;;;;;;;20.85;54.32;96911.81;4944436;28;20226;-28
2023/04/23 09:35:22;;;;;;;5.70;3.27;;;;;;;20.85;53.87;96911.81;4935813;29;20201;-29
2023/04/23 09:37:51;;;;;;;18.90;4.10;;;;;;;20.83;54.88;96914.31;4922397;29;20200;-30
2023/04/23 09:40:20;;;;;;;31.23;4.57;;;;;;;20.85;54.71;96910.13;4939683;29;20255;-30
2023/04/23 09:42:54;;;;;;;41.87;4.97;;;;;;;20.85;54.88;96910.13;4941615;28;20351;-30
2023/04/23 09:45:21;;;;;;;45.50;5.80;;;;;;;20.84;55.02;96917.75;4935903;29;20275;-29
2023/04/23 09:47:52;;;;;;;57.77;6.57;;;;;;;20.87;55.09;96920.38;4938455;29;20229;-28
2023/04/23 09:50:40;;;;;;;44.10;6.33;;;;;;;20.88;55.21;96920.41;4939677;29;20622;-27
2023/04/23 09:53:07;;;;;;;47.07;6.40;;;;;;;20.75;55.37;96890.31;4936218;29;20200;-29
2023/04/23 09:55:38;;;;;;;38.97;5.33;;;;;;;20.88;55.31;96915.31;4939757;29;20205;-36
2023/04/23 09:58:06;;;;;;;24.73;5.03;;;;;;;20.89;55.35;96911.03;4944174;29;20208;-27
2023/04/23 10:00:34;;;;;;;38.47;6.10;;;;;;;20.90;55.29;96915.34;4938966;29;20205;-27
2023/04/23 10:03:01;;;;;;;22.43;4.83;;;;;;;20.90;55.23;96911.06;4935860;29;20668;-27
2023/04/23 10:05:28;;;;;;;32.00;5.57;;;;;;;20.90;54.93;96926.41;4936746;29;20251;-27
2023/04/23 10:08:15;;;;;;;27.43;5.70;;;;;;;20.89;55.08;96904.25;4937408;29;20295;-26
2023/04/23 10:10:41;;;;;;;24.53;4.87;;;;;;;20.90;55.07;96907.69;4920576;29;20201;-27
2023/04/23 10:13:28;;;;;;;23.37;4.97;;;;;;;20.86;54.82;96898.19;4927494;29;20254;-27
2023/04/23 10:15:55;;;;;;;37.87;5.90;;;;;;;20.91;54.86;96912.81;4930387;29;20211;-28
2023/04/23 10:18:30;;;;;;;22.63;4.80;;;;;;;20.84;54.65;96895.63;4927016;29;20291;-27
2023/04/23 10:20:57;;;;;;;20.23;5.13;;;;;;;20.90;54.62;96910.22;4937331;29;20714;-27
2023/04/23 10:23:23;;;;;;;15.00;4.47;;;;;;;20.84;54.64;96892.22;4936271;29;20209;-26
2023/04/23 10:25:52;;;;;;;15.60;5.03;;;;;;;20.90;54.52;96900.84;4934436;29;20239;-29
2023/04/23 10:28:25;;;;;;;29.57;4.53;;;;;;;20.84;54.54;96884.56;4918401;29;20207;-27
2023/04/23 10:30:52;;;;;;;32.80;5.00;;;;;;;20.89;54.78;96901.69;4940559;29;20211;-27
2023/04/23 10:33:19;;;;;;;16.77;4.93;;;;;;;20.84;54.94;96889.66;4934857;29;20209;-26
2023/04/23 10:35:57;;;;;;;16.83;4.57;;;;;;;20.90;55.25;96898.31;4931379;29;20201;-26
2023/04/23 10:38:27;;;;;;;18.47;4.70;;;;;;;20.91;55.00;96896.63;4940094;29;20299;-26
2023/04/23 10:40:54;;;;;;;13.50;3.90;;;;;;;20.90;55.00;96894.91;4940149;29;20201;-27
2023/04/23 10:43:21;;;;;;;20.60;4.10;;;;;;;20.89;55.55;96895.72;4917866;29;20723;-27
2023/04/23 10:45:48;;;;;;;10.70;3.93;;;;;;;20.88;54.93;96889.75;4938612;29;20211;-26
2023/04/23 10:48:15;;;;;;;14.90;4.00;;;;;;;20.88;54.87;96889.75;4923883;29;20244;-28
2023/04/23 10:50:43;;;;;;;9.63;3.70;;;;;;;20.85;54.54;96874.38;4924064;29;20334;-30
2023/04/23 10:53:30;;;;;;;10.63;3.97;;;;;;;20.88;55.04;96871.88;4920316;29;20632;-35
2023/04/23 10:56:06;;;;;;;10.50;3.40;;;;;;;20.80;54.80;96852.09;4922496;29;20209;-32
2023/04/23 10:58:50;;;;;;;9.20;3.20;;;;;;;20.88;54.63;96848.03;4924230;29;20205;-31
2023/04/23 11:01:17;;;;;;;11.57;3.40;;;;;;;20.79;54.79;96842.72;4924353;28;20225;-27
2023/04/23 11:03:44;;;;;;;7.23;3.50;;;;;;;20.88;54.78;96860.78;4907445;29;20205;-34
2023/04/23 11:06:38;;;;;;;13.10;3.90;;;;;;;20.87;54.86;96865.03;4936244;28;20296;-28
2023/04/23 11:09:33;;;;;;;8.30;3.47;;;;;;;20.88;54.68;96853.13;4919540;29;20662;-28
2023/04/23 11:12:01;;;;;;;9.67;3.23;;;;;;;20.87;54.73;96847.16;4919969;29;20237;-27
2023/04/23 11:14:41;;;;;;;14.97;3.30;;;;;;;20.83;54.83;96841.94;4921566;29;20214;-27
2023/04/23 11:17:13;;;;;;;9.77;3.40;;;;;;;20.46;54.52;96773.06;4922791;29;20771;-26
2023/04/23 11:19:40;;;;;;;9.03;3.13;;;;;;;20.85;54.59;96833.50;4924504;29;20304;-28
2023/04/23 11:22:19;;;;;;;7.60;3.30;;;;;;;20.86;54.57;96825.00;4922805;29;20236;-29
2023/04/23 11:24:45;;;;;;;7.17;3.60;;;;;;;20.87;54.60;96828.44;4923660;29;20206;-28
2023/04/23 11:27:16;;;;;;;5.80;2.63;;;;;;;20.87;54.42;96828.44;4924542;29;20304;-27
2023/04/23 11:29:44;;;;;;;6.93;3.10;;;;;;;20.86;54.57;96824.13;4922114;29;20212;-30
2023/04/23 11:32:12;;;;;;;8.43;3.43;;;;;;;20.85;54.64;96830.09;4931020;28;20293;-28
2023/04/23 11:34:39;;;;;;;8.23;3.17;;;;;;;20.86;54.67;96819.03;4922677;29;20247;-28